sensor_id;sensor_type;location;lat;lon;timestamp;temperature;humidity
39677;DHT22;27789;50.840;4.386;2023-04-01T00:01:44;10.20;99.90
39677;DHT22;27789;50.840;4.386;2023-04-01T00:04:09;10.20;99.90
39677;DHT22;27789;50.840;4.386;2023-04-01T00:06:35;10.20;99.90
39677;DHT22;27789;50.840;4.386;2023-04-01T00:09:01;10.20;99.90
39677;DHT22;27789;50.840;4.386;2023-04-01T00:11:26;10.20;99.90
39677;DHT22;27789;50.840;4.386;2023-04-01T00:13:53;10.20;99.90
39677;DHT22;27789;50.840;4.386;2023-04-01T00:16:18;10.20;99.90
39677;DHT22;27789;50.840;4.386;2023-04-01T00:18:44;10.10;99.90
39677;DHT22;27789;50.840;4.386;2023-04-01T00:21:12;10.10;99.90
39677;DHT22;27789;50.840;4.386;2023-04-01T00:23:38;10.10;99.90
39677;DHT22;27789;50.840;4.386;2023-04-01T00:26:03;10.10;99.90
39677;DHT22;27789;50.840;4.386;2023-04-01T00:28:29;10.10;99.90
39677;DHT22;27789;50.840;4.386;2023-04-01T00:30:54;10.10;99.90
39677;DHT22;27789;50.840;4.386;2023-04-01T00:33:20;10.10;99.90
39677;DHT22;27789;50.840;4.386;2023-04-01T00:35:46;10.10;99.90
39677;DHT22;27789;50.840;4.386;2023-04-01T00:38:11;10.30;99.90
39677;DHT22;27789;50.840;4.386;2023-04-01T00:40:38;10.20;99.90
39677;DHT22;27789;50.840;4.386;2023-04-01T00:43:10;10.20;99.90
39677;DHT22;27789;50.840;4.386;2023-04-01T00:45:37;10.10;99.90
39677;DHT22;27789;50.840;4.386;2023-04-01T00:48:05;10.10;99.90
39677;DHT22;27789;50.840;4.386;2023-04-01T00:50:31;10.10;99.90
39677;DHT22;27789;50.840;4.386;2023-04-01T00:52:57;10.10;99.90
39677;DHT22;27789;50.840;4.386;2023-04-01T00:55:24;10.10;99.90
39677;DHT22;27789;50.840;4.386;2023-04-01T00:57:52;10.10;99.90
39677;DHT22;27789;50.840;4.386;2023-04-01T01:00:18;10.10;99.90
39677;DHT22;27789;50.840;4.386;2023-04-01T01:02:45;10.10;99.90
39677;DHT22;27789;50.840;4.386;2023-04-01T01:05:12;10.10;99.90
39677;DHT22;27789;50.840;4.386;2023-04-01T01:10:17;10.20;99.90
39677;DHT22;27789;50.840;4.386;2023-04-01T01:22:37;10.30;99.90
39677;DHT22;27789;50.840;4.386;2023-04-01T01:27:30;10.30;99.90
39677;DHT22;27789;50.840;4.386;2023-04-01T01:34:55;10.30;99.90
39677;DHT22;27789;50.840;4.386;2023-04-01T01:37:23;10.30;99.90
39677;DHT22;27789;50.840;4.386;2023-04-01T01:39:52;10.30;99.90
39677;DHT22;27789;50.840;4.386;2023-04-01T01:42:19;10.30;99.90
39677;DHT22;27789;50.840;4.386;2023-04-01T01:44:46;10.40;99.90
39677;DHT22;27789;50.840;4.386;2023-04-01T01:47:12;10.40;99.90
39677;DHT22;27789;50.840;4.386;2023-04-01T01:49:39;10.30;99.90
39677;DHT22;27789;50.840;4.386;2023-04-01T01:52:05;10.40;99.90
39677;DHT22;27789;50.840;4.386;2023-04-01T01:54:31;10.30;99.90
39677;DHT22;27789;50.840;4.386;2023-04-01T01:57:05;10.30;99.90
39677;DHT22;27789;50.840;4.386;2023-04-01T01:59:31;10.30;99.90
39677;DHT22;27789;50.840;4.386;2023-04-01T02:01:58;10.30;99.90
39677;DHT22;27789;50.840;4.386;2023-04-01T02:04:24;10.30;99.90
39677;DHT22;27789;50.840;4.386;2023-04-01T02:06:56;10.30;99.90
39677;DHT22;27789;50.840;4.386;2023-04-01T02:09:23;10.40;99.90
39677;DHT22;27789;50.840;4.386;2023-04-01T02:11:49;10.40;99.90
39677;DHT22;27789;50.840;4.386;2023-04-01T02:16:56;10.50;99.90
39677;DHT22;27789;50.840;4.386;2023-04-01T02:19:24;10.50;99.90
39677;DHT22;27789;50.840;4.386;2023-04-01T02:21:53;10.50;99.90
39677;DHT22;27789;50.840;4.386;2023-04-01T02:24:20;10.50;99.90
39677;DHT22;27789;50.840;4.386;2023-04-01T02:26:48;10.50;99.90
39677;DHT22;27789;50.840;4.386;2023-04-01T02:29:15;10.40;99.90
39677;DHT22;27789;50.840;4.386;2023-04-01T02:31:43;10.40;99.90
39677;DHT22;27789;50.840;4.386;2023-04-01T02:34:08;10.40;99.90
39677;DHT22;27789;50.840;4.386;2023-04-01T02:36:35;10.40;99.90
39677;DHT22;27789;50.840;4.386;2023-04-01T02:39:01;10.40;99.90
39677;DHT22;27789;50.840;4.386;2023-04-01T02:41:28;10.30;99.90
39677;DHT22;27789;50.840;4.386;2023-04-01T02:43:53;10.30;99.90
39677;DHT22;27789;50.840;4.386;2023-04-01T02:46:20;10.30;99.90
39677;DHT22;27789;50.840;4.386;2023-04-01T02:48:45;10.30;99.90
39677;DHT22;27789;50.840;4.386;2023-04-01T02:51:11;10.30;99.90
39677;DHT22;27789;50.840;4.386;2023-04-01T02:53:36;10.40;99.90
39677;DHT22;27789;50.840;4.386;2023-04-01T02:56:02;10.40;99.90
39677;DHT22;27789;50.840;4.386;2023-04-01T02:58:27;10.40;99.90
39677;DHT22;27789;50.840;4.386;2023-04-01T03:00:53;10.50;99.90
39677;DHT22;27789;50.840;4.386;2023-04-01T03:03:18;10.40;99.90
39677;DHT22;27789;50.840;4.386;2023-04-01T03:05:44;10.40;99.90
39677;DHT22;27789;50.840;4.386;2023-04-01T03:08:09;10.40;99.90
39677;DHT22;27789;50.840;4.386;2023-04-01T03:10:35;10.40;99.90
39677;DHT22;27789;50.840;4.386;2023-04-01T03:13:01;10.40;99.90
39677;DHT22;27789;50.840;4.386;2023-04-01T03:15:26;10.30;99.90
39677;DHT22;27789;50.840;4.386;2023-04-01T03:17:52;10.20;99.90
39677;DHT22;27789;50.840;4.386;2023-04-01T03:20:17;10.20;99.90
39677;DHT22;27789;50.840;4.386;2023-04-01T03:22:43;10.20;99.90
39677;DHT22;27789;50.840;4.386;2023-04-01T03:25:08;10.20;99.90
39677;DHT22;27789;50.840;4.386;2023-04-01T03:27:34;10.10;99.90
39677;DHT22;27789;50.840;4.386;2023-04-01T03:30:01;10.10;99.90
39677;DHT22;27789;50.840;4.386;2023-04-01T03:32:27;10.20;99.90
39677;DHT22;27789;50.840;4.386;2023-04-01T03:34:53;10.20;99.90
39677;DHT22;27789;50.840;4.386;2023-04-01T03:37:18;10.20;99.90
39677;DHT22;27789;50.840;4.386;2023-04-01T03:39:43;10.20;99.90
39677;DHT22;27789;50.840;4.386;2023-04-01T03:42:09;10.20;99.90
39677;DHT22;27789;50.840;4.386;2023-04-01T03:44:35;10.20;99.90
39677;DHT22;27789;50.840;4.386;2023-04-01T03:47:01;10.20;99.90
39677;DHT22;27789;50.840;4.386;2023-04-01T03:49:26;10.20;99.90
39677;DHT22;27789;50.840;4.386;2023-04-01T03:51:52;10.30;99.90
39677;DHT22;27789;50.840;4.386;2023-04-01T03:54:17;10.30;99.90
39677;DHT22;27789;50.840;4.386;2023-04-01T03:56:45;10.30;99.90
39677;DHT22;27789;50.840;4.386;2023-04-01T03:59:11;10.30;99.90
39677;DHT22;27789;50.840;4.386;2023-04-01T04:01:36;10.30;99.90
39677;DHT22;27789;50.840;4.386;2023-04-01T04:04:02;10.30;99.90
39677;DHT22;27789;50.840;4.386;2023-04-01T04:06:27;10.40;99.90
39677;DHT22;27789;50.840;4.386;2023-04-01T04:08:53;10.30;99.90
39677;DHT22;27789;50.840;4.386;2023-04-01T04:11:19;10.30;99.90
39677;DHT22;27789;50.840;4.386;2023-04-01T04:13:45;10.30;99.90
39677;DHT22;27789;50.840;4.386;2023-04-01T04:16:10;10.30;99.90
39677;DHT22;27789;50.840;4.386;2023-04-01T04:18:36;10.30;99.90
39677;DHT22;27789;50.840;4.386;2023-04-01T04:21:02;10.30;99.90
39677;DHT22;27789;50.840;4.386;2023-04-01T04:23:28;10.20;99.90
39677;DHT22;27789;50.840;4.386;2023-04-01T04:25:56;10.20;99.90
39677;DHT22;27789;50.840;4.386;2023-04-01T04:28:22;10.20;99.90
39677;DHT22;27789;50.840;4.386;2023-04-01T04:30:48;10.20;99.90
39677;DHT22;27789;50.840;4.386;2023-04-01T04:33:13;10.20;99.90
39677;DHT22;27789;50.840;4.386;2023-04-01T04:35:38;10.10;99.90
39677;DHT22;27789;50.840;4.386;2023-04-01T04:38:04;10.20;99.90
39677;DHT22;27789;50.840;4.386;2023-04-01T04:40:29;10.20;99.90
39677;DHT22;27789;50.840;4.386;2023-04-01T04:42:55;10.20;99.90
39677;DHT22;27789;50.840;4.386;2023-04-01T04:45:20;10.20;99.90
39677;DHT22;27789;50.840;4.386;2023-04-01T04:47:46;10.20;99.90
39677;DHT22;27789;50.840;4.386;2023-04-01T04:50:11;10.20;99.90
39677;DHT22;27789;50.840;4.386;2023-04-01T04:52:38;10.20;99.90
39677;DHT22;27789;50.840;4.386;2023-04-01T04:55:03;10.10;99.90
39677;DHT22;27789;50.840;4.386;2023-04-01T04:57:29;10.10;99.90
39677;DHT22;27789;50.840;4.386;2023-04-01T04:59:54;10.10;99.90
39677;DHT22;27789;50.840;4.386;2023-04-01T05:02:20;10.10;99.90
39677;DHT22;27789;50.840;4.386;2023-04-01T05:04:45;10.20;99.90
39677;DHT22;27789;50.840;4.386;2023-04-01T05:07:11;10.20;99.90
39677;DHT22;27789;50.840;4.386;2023-04-01T05:09:36;10.10;99.90
39677;DHT22;27789;50.840;4.386;2023-04-01T05:12:02;10.20;99.90
39677;DHT22;27789;50.840;4.386;2023-04-01T05:14:27;10.20;99.90
39677;DHT22;27789;50.840;4.386;2023-04-01T05:16:53;10.20;99.90
39677;DHT22;27789;50.840;4.386;2023-04-01T05:19:19;10.20;99.90
39677;DHT22;27789;50.840;4.386;2023-04-01T05:21:45;10.20;99.90
39677;DHT22;27789;50.840;4.386;2023-04-01T05:24:10;10.20;99.90
39677;DHT22;27789;50.840;4.386;2023-04-01T05:26:36;10.20;99.90
39677;DHT22;27789;50.840;4.386;2023-04-01T05:29:02;10.20;99.90
39677;DHT22;27789;50.840;4.386;2023-04-01T05:31:28;10.20;99.90
39677;DHT22;27789;50.840;4.386;2023-04-01T05:33:54;10.20;99.90
39677;DHT22;27789;50.840;4.386;2023-04-01T05:36:20;10.10;99.90
39677;DHT22;27789;50.840;4.386;2023-04-01T05:38:45;10.20;99.90
39677;DHT22;27789;50.840;4.386;2023-04-01T05:41:11;10.10;99.90
39677;DHT22;27789;50.840;4.386;2023-04-01T05:43:37;10.10;99.90
39677;DHT22;27789;50.840;4.386;2023-04-01T05:46:03;10.10;99.90
39677;DHT22;27789;50.840;4.386;2023-04-01T05:48:28;10.10;99.90
39677;DHT22;27789;50.840;4.386;2023-04-01T05:50:54;10.10;99.90
39677;DHT22;27789;50.840;4.386;2023-04-01T05:53:20;10.10;99.90
39677;DHT22;27789;50.840;4.386;2023-04-01T05:55:45;10.10;99.90
39677;DHT22;27789;50.840;4.386;2023-04-01T05:58:11;10.10;99.90
39677;DHT22;27789;50.840;4.386;2023-04-01T06:00:36;10.10;99.90
39677;DHT22;27789;50.840;4.386;2023-04-01T06:03:02;10.20;99.90
39677;DHT22;27789;50.840;4.386;2023-04-01T06:05:28;10.10;99.90
39677;DHT22;27789;50.840;4.386;2023-04-01T06:07:57;10.10;99.90
39677;DHT22;27789;50.840;4.386;2023-04-01T06:10:23;10.10;99.90
39677;DHT22;27789;50.840;4.386;2023-04-01T06:13:04;10.10;99.90
39677;DHT22;27789;50.840;4.386;2023-04-01T06:30:44;10.30;99.90
39677;DHT22;27789;50.840;4.386;2023-04-01T06:46:12;10.20;99.90
39677;DHT22;27789;50.840;4.386;2023-04-01T06:54:01;10.20;99.90
39677;DHT22;27789;50.840;4.386;2023-04-01T06:56:28;10.20;99.90
39677;DHT22;27789;50.840;4.386;2023-04-01T07:01:34;10.30;99.90
39677;DHT22;27789;50.840;4.386;2023-04-01T07:04:02;10.30;99.90
39677;DHT22;27789;50.840;4.386;2023-04-01T07:06:35;10.20;99.90
39677;DHT22;27789;50.840;4.386;2023-04-01T07:11:37;10.30;99.90
39677;DHT22;27789;50.840;4.386;2023-04-01T07:16:44;10.30;99.90
39677;DHT22;27789;50.840;4.386;2023-04-01T07:19:12;10.30;99.90
39677;DHT22;27789;50.840;4.386;2023-04-01T07:21:44;10.30;99.90
39677;DHT22;27789;50.840;4.386;2023-04-01T07:24:14;10.30;99.90
39677;DHT22;27789;50.840;4.386;2023-04-01T07:26:42;10.30;99.90
39677;DHT22;27789;50.840;4.386;2023-04-01T07:29:11;10.40;99.90
39677;DHT22;27789;50.840;4.386;2023-04-01T07:31:44;10.40;99.90
39677;DHT22;27789;50.840;4.386;2023-04-01T07:36:48;10.40;99.90
39677;DHT22;27789;50.840;4.386;2023-04-01T07:49:30;10.50;99.90
39677;DHT22;27789;50.840;4.386;2023-04-01T07:52:01;10.50;99.90
39677;DHT22;27789;50.840;4.386;2023-04-01T07:54:32;10.50;99.90
39677;DHT22;27789;50.840;4.386;2023-04-01T07:57:08;10.50;99.90
39677;DHT22;27789;50.840;4.386;2023-04-01T07:59:43;10.50;99.90
39677;DHT22;27789;50.840;4.386;2023-04-01T08:02:17;10.50;99.90
39677;DHT22;27789;50.840;4.386;2023-04-01T08:07:22;10.40;99.90
39677;DHT22;27789;50.840;4.386;2023-04-01T08:09:54;10.50;99.90
39677;DHT22;27789;50.840;4.386;2023-04-01T08:20:14;10.50;99.90
39677;DHT22;27789;50.840;4.386;2023-04-01T08:22:42;10.50;99.90
39677;DHT22;27789;50.840;4.386;2023-04-01T08:25:10;10.50;99.90
39677;DHT22;27789;50.840;4.386;2023-04-01T08:27:40;10.60;99.90
39677;DHT22;27789;50.840;4.386;2023-04-01T08:32:44;10.60;99.90
39677;DHT22;27789;50.840;4.386;2023-04-01T08:35:17;10.60;99.90
39677;DHT22;27789;50.840;4.386;2023-04-01T08:37:45;10.60;99.90
39677;DHT22;27789;50.840;4.386;2023-04-01T08:58:15;10.70;99.90
39677;DHT22;27789;50.840;4.386;2023-04-01T09:00:49;10.70;99.90
39677;DHT22;27789;50.840;4.386;2023-04-01T09:03:24;10.70;99.90
39677;DHT22;27789;50.840;4.386;2023-04-01T09:11:03;10.70;99.90
39677;DHT22;27789;50.840;4.386;2023-04-01T09:13:34;10.70;99.90
39677;DHT22;27789;50.840;4.386;2023-04-01T09:28:42;10.90;99.90
39677;DHT22;27789;50.840;4.386;2023-04-01T09:31:11;11.00;99.90
39677;DHT22;27789;50.840;4.386;2023-04-01T10:04:04;11.20;99.90
39677;DHT22;27789;50.840;4.386;2023-04-01T10:19:03;11.50;99.90
39677;DHT22;27789;50.840;4.386;2023-04-01T10:24:12;11.50;99.90
39677;DHT22;27789;50.840;4.386;2023-04-01T10:36:57;11.50;99.90
39677;DHT22;27789;50.840;4.386;2023-04-01T10:47:00;11.80;99.90
39677;DHT22;27789;50.840;4.386;2023-04-01T10:49:37;11.80;99.90
39677;DHT22;27789;50.840;4.386;2023-04-01T10:52:30;11.80;99.90
39677;DHT22;27789;50.840;4.386;2023-04-01T11:12:41;11.70;99.90
39677;DHT22;27789;50.840;4.386;2023-04-01T11:22:58;11.50;99.90
39677;DHT22;27789;50.840;4.386;2023-04-01T11:51:19;11.80;99.90
39677;DHT22;27789;50.840;4.386;2023-04-01T11:53:55;11.80;99.90
39677;DHT22;27789;50.840;4.386;2023-04-01T12:06:35;11.60;99.90
39677;DHT22;27789;50.840;4.386;2023-04-01T12:14:08;11.70;99.90
39677;DHT22;27789;50.840;4.386;2023-04-01T12:24:46;11.70;99.90
39677;DHT22;27789;50.840;4.386;2023-04-01T12:30:00;11.60;99.90
39677;DHT22;27789;50.840;4.386;2023-04-01T12:32:31;11.60;99.90
39677;DHT22;27789;50.840;4.386;2023-04-01T12:53:42;11.60;99.90
39677;DHT22;27789;50.840;4.386;2023-04-01T12:55:48;11.50;99.90
39677;DHT22;27789;50.840;4.386;2023-04-01T13:00:48;11.30;99.90
39677;DHT22;27789;50.840;4.386;2023-04-01T13:03:27;11.30;99.90
39677;DHT22;27789;50.840;4.386;2023-04-01T13:16:05;11.10;99.90
39677;DHT22;27789;50.840;4.386;2023-04-01T13:28:39;11.20;99.90
39677;DHT22;27789;50.840;4.386;2023-04-01T13:33:44;11.30;99.90
39677;DHT22;27789;50.840;4.386;2023-04-01T13:41:27;11.20;99.90
39677;DHT22;27789;50.840;4.386;2023-04-01T13:46:33;11.10;99.90
39677;DHT22;27789;50.840;4.386;2023-04-01T13:49:07;11.10;99.90
39677;DHT22;27789;50.840;4.386;2023-04-01T13:51:45;11.20;99.90
39677;DHT22;27789;50.840;4.386;2023-04-01T13:54:23;11.30;99.90
39677;DHT22;27789;50.840;4.386;2023-04-01T14:02:11;11.60;99.90
39677;DHT22;27789;50.840;4.386;2023-04-01T14:04:43;11.50;99.90
39677;DHT22;27789;50.840;4.386;2023-04-01T14:07:19;11.50;99.90
39677;DHT22;27789;50.840;4.386;2023-04-01T14:22:31;11.60;99.90
39677;DHT22;27789;50.840;4.386;2023-04-01T14:25:10;11.60;99.90
39677;DHT22;27789;50.840;4.386;2023-04-01T14:27:48;11.60;99.90
39677;DHT22;27789;50.840;4.386;2023-04-01T14:35:27;11.40;99.90
39677;DHT22;27789;50.840;4.386;2023-04-01T14:38:04;11.40;99.90
39677;DHT22;27789;50.840;4.386;2023-04-01T14:50:50;11.20;99.90
39677;DHT22;27789;50.840;4.386;2023-04-01T14:58:17;11.40;99.90
39677;DHT22;27789;50.840;4.386;2023-04-01T15:03:18;11.40;99.90
39677;DHT22;27789;50.840;4.386;2023-04-01T15:06:14;11.40;99.90
39677;DHT22;27789;50.840;4.386;2023-04-01T15:08:32;11.40;99.90
39677;DHT22;27789;50.840;4.386;2023-04-01T15:16:09;11.30;99.90
39677;DHT22;27789;50.840;4.386;2023-04-01T15:21:13;11.10;99.90
39677;DHT22;27789;50.840;4.386;2023-04-01T15:23:50;11.10;99.90
39677;DHT22;27789;50.840;4.386;2023-04-01T15:26:29;11.10;99.90
39677;DHT22;27789;50.840;4.386;2023-04-01T15:31:27;11.20;99.90
39677;DHT22;27789;50.840;4.386;2023-04-01T15:34:03;11.20;99.90
39677;DHT22;27789;50.840;4.386;2023-04-01T15:44:26;11.20;99.90
39677;DHT22;27789;50.840;4.386;2023-04-01T15:46:56;11.20;99.90
39677;DHT22;27789;50.840;4.386;2023-04-01T15:49:28;11.10;99.90
39677;DHT22;27789;50.840;4.386;2023-04-01T16:09:45;11.00;99.90
39677;DHT22;27789;50.840;4.386;2023-04-01T16:12:18;11.00;99.90
39677;DHT22;27789;50.840;4.386;2023-04-01T16:22:17;10.70;99.90
39677;DHT22;27789;50.840;4.386;2023-04-01T16:24:46;10.70;99.90
39677;DHT22;27789;50.840;4.386;2023-04-01T16:27:24;10.70;99.90
39677;DHT22;27789;50.840;4.386;2023-04-01T16:32:31;10.70;99.90
39677;DHT22;27789;50.840;4.386;2023-04-01T16:35:14;10.70;99.90
39677;DHT22;27789;50.840;4.386;2023-04-01T16:37:46;10.70;99.90
39677;DHT22;27789;50.840;4.386;2023-04-01T16:40:24;10.70;99.90
39677;DHT22;27789;50.840;4.386;2023-04-01T16:42:51;10.70;99.90
39677;DHT22;27789;50.840;4.386;2023-04-01T16:47:58;10.70;99.90
39677;DHT22;27789;50.840;4.386;2023-04-01T16:53:09;10.70;99.90
39677;DHT22;27789;50.840;4.386;2023-04-01T17:00:50;10.70;99.90
39677;DHT22;27789;50.840;4.386;2023-04-01T17:13:52;10.70;99.90
39677;DHT22;27789;50.840;4.386;2023-04-01T17:26:46;10.60;99.90
39677;DHT22;27789;50.840;4.386;2023-04-01T17:31:53;10.60;99.90
39677;DHT22;27789;50.840;4.386;2023-04-01T17:34:30;10.60;99.90
39677;DHT22;27789;50.840;4.386;2023-04-01T17:42:14;10.60;99.90
39677;DHT22;27789;50.840;4.386;2023-04-01T17:47:19;10.60;99.90
39677;DHT22;27789;50.840;4.386;2023-04-01T17:49:58;10.60;99.90
39677;DHT22;27789;50.840;4.386;2023-04-01T18:02:31;10.50;99.90
39677;DHT22;27789;50.840;4.386;2023-04-01T18:07:50;10.50;99.90
39677;DHT22;27789;50.840;4.386;2023-04-01T18:10:25;10.50;99.90
39677;DHT22;27789;50.840;4.386;2023-04-01T18:20:37;10.50;99.90
39677;DHT22;27789;50.840;4.386;2023-04-01T18:25:44;10.40;99.90
39677;DHT22;27789;50.840;4.386;2023-04-01T18:28:18;10.40;99.90
39677;DHT22;27789;50.840;4.386;2023-04-01T18:30:52;10.40;99.90
39677;DHT22;27789;50.840;4.386;2023-04-01T18:33:24;10.40;99.90
39677;DHT22;27789;50.840;4.386;2023-04-01T18:38:27;10.40;99.90
39677;DHT22;27789;50.840;4.386;2023-04-01T18:54:02;10.20;99.90
39677;DHT22;27789;50.840;4.386;2023-04-01T18:56:37;10.20;99.90
39677;DHT22;27789;50.840;4.386;2023-04-01T19:06:46;10.10;99.90
39677;DHT22;27789;50.840;4.386;2023-04-01T19:14:25;10.10;99.90
39677;DHT22;27789;50.840;4.386;2023-04-01T19:19:22;10.00;99.90
39677;DHT22;27789;50.840;4.386;2023-04-01T19:32:11;10.00;99.90
39677;DHT22;27789;50.840;4.386;2023-04-01T19:39:57;10.00;99.90
39677;DHT22;27789;50.840;4.386;2023-04-01T19:47:58;9.90;99.90
39677;DHT22;27789;50.840;4.386;2023-04-01T19:53:04;9.80;99.90
39677;DHT22;27789;50.840;4.386;2023-04-01T19:55:36;9.80;99.90
39677;DHT22;27789;50.840;4.386;2023-04-01T19:58:05;9.80;99.90
39677;DHT22;27789;50.840;4.386;2023-04-01T20:00:36;9.80;99.90
39677;DHT22;27789;50.840;4.386;2023-04-01T20:13:05;9.80;99.90
39677;DHT22;27789;50.840;4.386;2023-04-01T20:15:39;9.80;99.90
39677;DHT22;27789;50.840;4.386;2023-04-01T20:18:13;9.80;99.90
39677;DHT22;27789;50.840;4.386;2023-04-01T20:20:40;9.80;99.90
39677;DHT22;27789;50.840;4.386;2023-04-01T20:25:37;9.80;99.90
39677;DHT22;27789;50.840;4.386;2023-04-01T20:28:09;9.70;99.90
39677;DHT22;27789;50.840;4.386;2023-04-01T20:40:47;9.80;99.90
39677;DHT22;27789;50.840;4.386;2023-04-01T20:48:52;9.80;99.90
39677;DHT22;27789;50.840;4.386;2023-04-01T20:51:13;9.80;99.90
39677;DHT22;27789;50.840;4.386;2023-04-01T20:53:47;9.80;99.90
39677;DHT22;27789;50.840;4.386;2023-04-01T21:22:15;9.90;99.90
39677;DHT22;27789;50.840;4.386;2023-04-01T21:24:48;9.90;99.90
39677;DHT22;27789;50.840;4.386;2023-04-01T21:37:36;9.90;99.90
39677;DHT22;27789;50.840;4.386;2023-04-01T21:45:11;10.00;99.90
39677;DHT22;27789;50.840;4.386;2023-04-01T21:58:13;10.10;99.90
39677;DHT22;27789;50.840;4.386;2023-04-01T22:09:05;10.10;99.90
39677;DHT22;27789;50.840;4.386;2023-04-01T22:16:23;10.10;99.90
39677;DHT22;27789;50.840;4.386;2023-04-01T22:18:58;10.10;99.90
39677;DHT22;27789;50.840;4.386;2023-04-01T22:31:49;10.10;99.90
39677;DHT22;27789;50.840;4.386;2023-04-01T22:34:40;10.10;99.90
39677;DHT22;27789;50.840;4.386;2023-04-01T22:39:45;10.10;99.90
39677;DHT22;27789;50.840;4.386;2023-04-01T22:45:04;10.10;99.90
39677;DHT22;27789;50.840;4.386;2023-04-01T22:50:31;10.10;99.90
39677;DHT22;27789;50.840;4.386;2023-04-01T22:53:05;10.10;99.90
39677;DHT22;27789;50.840;4.386;2023-04-01T22:55:34;10.10;99.90
39677;DHT22;27789;50.840;4.386;2023-04-01T23:00:40;10.10;99.90
39677;DHT22;27789;50.840;4.386;2023-04-01T23:05:50;10.20;99.90
39677;DHT22;27789;50.840;4.386;2023-04-01T23:10:54;10.00;99.90
39677;DHT22;27789;50.840;4.386;2023-04-01T23:13:22;10.10;99.90
39677;DHT22;27789;50.840;4.386;2023-04-01T23:15:50;10.10;99.90
39677;DHT22;27789;50.840;4.386;2023-04-01T23:18:21;10.10;99.90
39677;DHT22;27789;50.840;4.386;2023-04-01T23:26:04;10.10;99.90
39677;DHT22;27789;50.840;4.386;2023-04-01T23:28:37;10.00;99.90
39677;DHT22;27789;50.840;4.386;2023-04-01T23:31:23;10.00;99.90
39677;DHT22;27789;50.840;4.386;2023-04-01T23:33:56;9.90;99.90
39677;DHT22;27789;50.840;4.386;2023-04-01T23:36:23;9.90;99.90
39677;DHT22;27789;50.840;4.386;2023-04-01T23:38:49;9.90;99.90
39677;DHT22;27789;50.840;4.386;2023-04-01T23:41:19;9.90;99.90
39677;DHT22;27789;50.840;4.386;2023-04-01T23:43:45;9.90;99.90
39677;DHT22;27789;50.840;4.386;2023-04-01T23:46:14;9.80;99.90
39677;DHT22;27789;50.840;4.386;2023-04-01T23:48:40;9.80;99.90
39677;DHT22;27789;50.840;4.386;2023-04-01T23:53:44;9.70;99.90
39677;DHT22;27789;50.840;4.386;2023-04-01T23:56:10;9.70;99.90
39677;DHT22;27789;50.840;4.386;2023-04-01T23:58:42;9.70;99.90
